createdAt,value
2018-07-28T01:32:13.502Z,1008.66
2018-07-28T01:32:14.075Z,1008.66
2018-07-28T01:32:14.676Z,1008.66
2018-07-28T01:32:15.274Z,1008.66
2018-07-28T01:32:15.875Z,1008.67
2018-07-28T01:32:16.477Z,1008.68
2018-07-28T01:32:17.076Z,1008.65
2018-07-28T01:32:17.674Z,1008.68
2018-07-28T01:33:12.178Z,1008.62
2018-07-28T01:33:12.753Z,1008.64
2018-07-28T01:33:13.350Z,1008.62
2018-07-28T01:33:13.950Z,1008.66
2018-07-28T01:33:14.550Z,1008.64
2018-07-28T01:33:15.150Z,1008.63
2018-07-28T01:33:15.750Z,1008.62
2018-07-28T01:33:16.349Z,1008.64
2018-07-28T01:34:10.857Z,1008.63
2018-07-28T01:34:11.427Z,1008.61
2018-07-28T01:34:12.028Z,1008.60
2018-07-28T01:34:12.628Z,1008.63
2018-07-28T01:34:13.227Z,1008.61
2018-07-28T01:34:13.826Z,1008.62
2018-07-28T01:34:14.426Z,1008.63
2018-07-28T01:34:15.026Z,1008.62
2018-07-28T01:35:08.505Z,1008.60
2018-07-28T01:35:09.080Z,1008.59
2018-07-28T01:35:09.683Z,1008.58
2018-07-28T01:35:10.281Z,1008.59
2018-07-28T01:35:10.881Z,1008.62
2018-07-28T01:35:11.480Z,1008.59
2018-07-28T01:35:12.080Z,1008.60
2018-07-28T01:35:12.680Z,1008.61
2018-07-28T01:36:06.157Z,1008.61
2018-07-28T01:36:06.732Z,1008.62
2018-07-28T01:36:07.333Z,1008.60
2018-07-28T01:36:07.933Z,1008.59
2018-07-28T01:36:08.533Z,1008.62
2018-07-28T01:36:09.133Z,1008.60
2018-07-28T01:36:09.733Z,1008.62
2018-07-28T01:36:10.333Z,1008.63
2018-07-28T01:37:04.837Z,1008.61
2018-07-28T01:37:05.413Z,1008.61
2018-07-28T01:37:06.007Z,1008.61
2018-07-28T01:37:06.606Z,1008.63
2018-07-28T01:37:07.207Z,1008.64
2018-07-28T01:37:07.807Z,1008.61
2018-07-28T01:37:08.407Z,1008.61
2018-07-28T01:37:09.006Z,1008.62
2018-07-28T01:38:02.487Z,1008.62
2018-07-28T01:38:03.062Z,1008.60
2018-07-28T01:38:03.661Z,1008.57
2018-07-28T01:38:04.260Z,1008.61
2018-07-28T01:38:04.862Z,1008.58
2018-07-28T01:38:05.460Z,1008.58
2018-07-28T01:38:06.061Z,1008.61
2018-07-28T01:38:06.668Z,1008.60
2018-07-28T01:39:01.167Z,1008.60
2018-07-28T01:39:01.736Z,1008.59
2018-07-28T01:39:02.339Z,1008.59
2018-07-28T01:39:02.936Z,1008.60
2018-07-28T01:39:03.535Z,1008.61
2018-07-28T01:39:04.137Z,1008.60
2018-07-28T01:39:04.735Z,1008.63
2018-07-28T01:39:05.336Z,1008.60
2018-07-28T01:39:58.814Z,1008.58
2018-07-28T01:39:59.390Z,1008.55
2018-07-28T01:39:59.989Z,1008.58
2018-07-28T01:40:00.589Z,1008.55
2018-07-28T01:40:01.190Z,1008.58
2018-07-28T01:40:01.790Z,1008.57
2018-07-28T01:40:02.389Z,1008.58
2018-07-28T01:40:02.989Z,1008.56
2018-07-28T01:40:56.466Z,1008.56
2018-07-28T01:40:57.041Z,1008.55
2018-07-28T01:40:57.642Z,1008.55
2018-07-28T01:40:58.242Z,1008.55
2018-07-28T01:40:58.840Z,1008.54
2018-07-28T01:40:59.440Z,1008.58
2018-07-28T01:41:00.042Z,1008.59
2018-07-28T01:41:00.641Z,1008.57
2018-07-28T01:41:54.120Z,1008.56
2018-07-28T01:41:54.696Z,1008.56
2018-07-28T01:41:55.296Z,1008.55
2018-07-28T01:41:55.892Z,1008.56
2018-07-28T01:41:56.492Z,1008.52
2018-07-28T01:41:57.092Z,1008.54
2018-07-28T01:41:57.691Z,1008.53
2018-07-28T01:41:58.291Z,1008.53
2018-07-28T01:42:52.800Z,1008.54
2018-07-28T01:42:53.372Z,1008.54
2018-07-28T01:42:53.968Z,1008.54
2018-07-28T01:42:54.568Z,1008.53
2018-07-28T01:42:55.169Z,1008.54
2018-07-28T01:42:55.768Z,1008.56
2018-07-28T01:42:56.368Z,1008.56
2018-07-28T01:42:56.967Z,1008.54
2018-07-28T01:43:51.473Z,1008.53
2018-07-28T01:43:52.046Z,1008.54
2018-07-28T01:43:52.644Z,1008.53
2018-07-28T01:43:53.245Z,1008.52
2018-07-28T01:43:53.843Z,1008.53
2018-07-28T01:43:54.444Z,1008.53
2018-07-28T01:43:55.044Z,1008.51
2018-07-28T01:43:55.644Z,1008.52
2018-07-28T01:44:50.161Z,1008.50
2018-07-28T01:44:50.720Z,1008.52
2018-07-28T01:44:51.320Z,1008.53
2018-07-28T01:44:51.920Z,1008.55
2018-07-28T01:44:52.520Z,1008.52
2018-07-28T01:44:53.120Z,1008.51
2018-07-28T01:44:53.719Z,1008.53
2018-07-28T01:44:54.325Z,1008.55
2018-07-28T01:45:48.825Z,1008.52
2018-07-28T01:45:49.396Z,1008.51
2018-07-28T01:45:49.999Z,1008.52
2018-07-28T01:45:50.597Z,1008.54
2018-07-28T01:45:51.196Z,1008.52
2018-07-28T01:45:51.797Z,1008.51
2018-07-28T01:45:52.396Z,1008.53
2018-07-28T01:45:52.996Z,1008.51
2018-07-28T01:46:46.474Z,1008.52
2018-07-28T01:46:47.048Z,1008.52
2018-07-28T01:46:47.649Z,1008.52
2018-07-28T01:46:48.248Z,1008.53
2018-07-28T01:46:48.849Z,1008.55
2018-07-28T01:46:49.449Z,1008.53
2018-07-28T01:46:50.054Z,1008.54
2018-07-28T01:46:50.648Z,1008.49
2018-07-28T01:47:44.126Z,1008.51
2018-07-28T01:47:44.700Z,1008.51
2018-07-28T01:47:45.300Z,1008.52
2018-07-28T01:47:45.901Z,1008.48
2018-07-28T01:47:46.500Z,1008.54
2018-07-28T01:47:47.100Z,1008.52
2018-07-28T01:47:47.700Z,1008.53
2018-07-28T01:47:48.300Z,1008.53
2018-07-28T01:48:41.777Z,1008.54
2018-07-28T01:48:42.352Z,1008.53
2018-07-28T01:48:42.953Z,1008.53
2018-07-28T01:48:43.553Z,1008.51
2018-07-28T01:48:44.152Z,1008.53
2018-07-28T01:48:44.755Z,1008.54
2018-07-28T01:48:45.353Z,1008.55
2018-07-28T01:48:45.952Z,1008.54
2018-07-28T01:49:39.434Z,1008.54
2018-07-28T01:49:40.009Z,1008.55
2018-07-28T01:49:40.605Z,1008.52
2018-07-28T01:49:41.204Z,1008.55
2018-07-28T01:49:41.805Z,1008.51
2018-07-28T01:49:42.404Z,1008.53
2018-07-28T01:49:43.004Z,1008.54
2018-07-28T01:49:43.605Z,1008.56
2018-07-28T01:50:37.185Z,1008.50
2018-07-28T01:50:37.759Z,1008.51
2018-07-28T01:50:38.358Z,1008.49
2018-07-28T01:50:38.959Z,1008.51
2018-07-28T01:50:39.559Z,1008.49
2018-07-28T01:50:40.160Z,1008.49
2018-07-28T01:50:40.758Z,1008.49
2018-07-28T01:50:41.358Z,1008.49
2018-07-28T01:51:35.860Z,1008.50
2018-07-28T01:51:36.438Z,1008.50
2018-07-28T01:51:37.035Z,1008.48
2018-07-28T01:51:37.633Z,1008.49
2018-07-28T01:51:38.234Z,1008.49
2018-07-28T01:51:38.834Z,1008.50
2018-07-28T01:51:39.432Z,1008.50
2018-07-28T01:51:40.033Z,1008.50
2018-07-28T01:52:34.542Z,1008.48
2018-07-28T01:52:35.110Z,1008.49
2018-07-28T01:52:35.711Z,1008.45
2018-07-28T01:52:36.309Z,1008.48
2018-07-28T01:52:36.910Z,1008.46
2018-07-28T01:52:37.511Z,1008.46
2018-07-28T01:52:38.109Z,1008.46
2018-07-28T01:52:38.709Z,1008.45
2018-07-28T01:53:33.210Z,1008.46
2018-07-28T01:53:33.787Z,1008.46
2018-07-28T01:53:34.384Z,1008.47
2018-07-28T01:53:34.987Z,1008.46
2018-07-28T01:53:35.584Z,1008.45
2018-07-28T01:53:36.184Z,1008.42
2018-07-28T01:53:36.784Z,1008.45
2018-07-28T01:53:37.383Z,1008.43
2018-07-28T01:54:31.890Z,1008.43
2018-07-28T01:54:32.460Z,1008.43
2018-07-28T01:54:33.062Z,1008.44
2018-07-28T01:54:33.662Z,1008.45
2018-07-28T01:54:34.261Z,1008.45
2018-07-28T01:54:34.861Z,1008.43
2018-07-28T01:54:35.460Z,1008.43
2018-07-28T01:54:36.061Z,1008.43
2018-07-28T01:55:30.567Z,1008.42
2018-07-28T01:55:31.136Z,1008.44
2018-07-28T01:55:31.737Z,1008.42
2018-07-28T01:55:32.334Z,1008.43
2018-07-28T01:55:32.934Z,1008.42
2018-07-28T01:55:33.534Z,1008.42
2018-07-28T01:55:34.134Z,1008.42
2018-07-28T01:55:34.735Z,1008.42
2018-07-28T01:56:28.214Z,1008.40
2018-07-28T01:56:28.790Z,1008.39
2018-07-28T01:56:29.389Z,1008.43
2018-07-28T01:56:29.990Z,1008.40
2018-07-28T01:56:30.589Z,1008.41
2018-07-28T01:56:31.189Z,1008.40
2018-07-28T01:56:31.791Z,1008.41
2018-07-28T01:56:32.389Z,1008.42
2018-07-28T01:57:25.969Z,1008.43
2018-07-28T01:57:26.546Z,1008.41
2018-07-28T01:57:27.144Z,1008.38
2018-07-28T01:57:27.743Z,1008.37
2018-07-28T01:57:28.346Z,1008.41
2018-07-28T01:57:28.943Z,1008.39
2018-07-28T01:57:29.544Z,1008.36
2018-07-28T01:57:30.144Z,1008.37
2018-07-28T01:58:23.724Z,1008.36
2018-07-28T01:58:24.298Z,1008.37
2018-07-28T01:58:24.898Z,1008.38
2018-07-28T01:58:25.498Z,1008.32
2018-07-28T01:58:26.097Z,1008.36
2018-07-28T01:58:26.698Z,1008.35
2018-07-28T01:58:27.298Z,1008.36
2018-07-28T01:58:27.898Z,1008.38
2018-07-28T01:59:21.478Z,1008.38
2018-07-28T01:59:22.051Z,1008.36
2018-07-28T01:59:22.652Z,1008.35
2018-07-28T01:59:23.252Z,1008.35
2018-07-28T01:59:23.852Z,1008.37
2018-07-28T01:59:24.452Z,1008.39
2018-07-28T01:59:25.057Z,1008.37
2018-07-28T01:59:25.652Z,1008.34
2018-07-28T02:00:20.153Z,1008.39
2018-07-28T02:00:20.727Z,1008.38
2018-07-28T02:00:21.327Z,1008.40
2018-07-28T02:00:21.932Z,1008.37
2018-07-28T02:00:22.528Z,1008.37
2018-07-28T02:00:23.126Z,1008.35
2018-07-28T02:00:23.727Z,1008.37
2018-07-28T02:00:24.328Z,1008.36
2018-07-28T02:01:18.827Z,1008.33
2018-07-28T02:01:19.402Z,1008.36
2018-07-28T02:01:20.002Z,1008.33
2018-07-28T02:01:20.602Z,1008.36
2018-07-28T02:01:21.203Z,1008.34
2018-07-28T02:01:21.800Z,1008.35
2018-07-28T02:01:22.400Z,1008.36
2018-07-28T02:01:22.999Z,1008.35
2018-07-28T02:02:17.507Z,1008.34
2018-07-28T02:02:18.079Z,1008.32
2018-07-28T02:02:18.678Z,1008.34
2018-07-28T02:02:19.277Z,1008.35
2018-07-28T02:02:19.879Z,1008.34
2018-07-28T02:02:20.477Z,1008.36
2018-07-28T02:02:21.078Z,1008.36
2018-07-28T02:02:21.679Z,1008.37
2018-07-28T02:03:16.178Z,1008.35
2018-07-28T02:03:16.755Z,1008.34
2018-07-28T02:03:17.356Z,1008.30
2018-07-28T02:03:17.953Z,1008.32
2018-07-28T02:03:18.552Z,1008.34
2018-07-28T02:03:19.153Z,1008.34
2018-07-28T02:03:19.753Z,1008.35
2018-07-28T02:03:20.353Z,1008.34
2018-07-28T02:04:14.859Z,1008.33
2018-07-28T02:04:15.430Z,1008.35
2018-07-28T02:04:16.030Z,1008.37
2018-07-28T02:04:16.630Z,1008.38
2018-07-28T02:04:17.230Z,1008.35
2018-07-28T02:04:17.830Z,1008.33
2018-07-28T02:04:18.430Z,1008.35
2018-07-28T02:04:19.030Z,1008.33
2018-07-28T02:05:12.611Z,1008.30
2018-07-28T02:05:13.185Z,1008.34
2018-07-28T02:05:13.785Z,1008.33
2018-07-28T02:05:14.385Z,1008.36
2018-07-28T02:05:14.984Z,1008.34
2018-07-28T02:05:15.584Z,1008.33
2018-07-28T02:05:16.185Z,1008.32
2018-07-28T02:05:16.785Z,1008.35
2018-07-28T02:06:11.286Z,1008.32
2018-07-28T02:06:11.859Z,1008.32
2018-07-28T02:06:12.460Z,1008.32
2018-07-28T02:06:13.060Z,1008.36
2018-07-28T02:06:13.660Z,1008.35
2018-07-28T02:06:14.259Z,1008.35
2018-07-28T02:06:14.861Z,1008.33
2018-07-28T02:06:15.459Z,1008.33
2018-07-28T02:07:09.043Z,1008.32
2018-07-28T02:07:09.615Z,1008.34
2018-07-28T02:07:10.254Z,1008.31
2018-07-28T02:07:10.815Z,1008.31
2018-07-28T02:07:11.416Z,1008.29
2018-07-28T02:07:12.016Z,1008.33
2018-07-28T02:07:12.615Z,1008.33
2018-07-28T02:07:13.217Z,1008.34
2018-07-28T02:08:07.715Z,1008.30
2018-07-28T02:08:08.288Z,1008.29
2018-07-28T02:08:08.892Z,1008.29
2018-07-28T02:08:09.488Z,1008.30
2018-07-28T02:08:10.089Z,1008.29
2018-07-28T02:08:10.687Z,1008.29
2018-07-28T02:08:11.290Z,1008.31
2018-07-28T02:08:11.889Z,1008.30
2018-07-28T02:09:06.394Z,1008.29
2018-07-28T02:09:06.967Z,1008.26
2018-07-28T02:09:07.565Z,1008.29
2018-07-28T02:09:08.164Z,1008.26
2018-07-28T02:09:08.765Z,1008.32
2018-07-28T02:09:09.366Z,1008.29
2018-07-28T02:09:09.965Z,1008.28
2018-07-28T02:09:10.565Z,1008.30
2018-07-28T02:10:05.065Z,1008.27
2018-07-28T02:10:05.639Z,1008.25
2018-07-28T02:10:06.240Z,1008.26
2018-07-28T02:10:06.840Z,1008.28
2018-07-28T02:10:07.440Z,1008.27
2018-07-28T02:10:08.043Z,1008.29
2018-07-28T02:10:08.639Z,1008.30
2018-07-28T02:10:09.240Z,1008.33
2018-07-28T02:11:03.746Z,1008.26
2018-07-28T02:11:04.317Z,1008.25
2018-07-28T02:11:04.917Z,1008.25
2018-07-28T02:11:05.517Z,1008.27
2018-07-28T02:11:06.116Z,1008.24
2018-07-28T02:11:06.718Z,1008.25
2018-07-28T02:11:07.317Z,1008.25
2018-07-28T02:11:07.916Z,1008.22
2018-07-28T02:12:02.419Z,1008.26
2018-07-28T02:12:02.992Z,1008.26
2018-07-28T02:12:03.593Z,1008.28
2018-07-28T02:12:04.193Z,1008.28
2018-07-28T02:12:04.792Z,1008.28
2018-07-28T02:12:05.393Z,1008.28
2018-07-28T02:12:05.992Z,1008.26
2018-07-28T02:12:06.595Z,1008.25
2018-07-28T02:13:01.092Z,1008.21
2018-07-28T02:13:01.668Z,1008.22
2018-07-28T02:13:02.267Z,1008.20
2018-07-28T02:13:02.867Z,1008.20
2018-07-28T02:13:03.466Z,1008.21
2018-07-28T02:13:04.068Z,1008.21
2018-07-28T02:13:04.666Z,1008.21
2018-07-28T02:13:05.269Z,1008.22
2018-07-28T02:13:58.746Z,1008.20
2018-07-28T02:13:59.322Z,1008.23
2018-07-28T02:13:59.921Z,1008.19
2018-07-28T02:14:00.522Z,1008.23
2018-07-28T02:14:01.123Z,1008.20
2018-07-28T02:14:01.722Z,1008.18
2018-07-28T02:14:02.320Z,1008.19
2018-07-28T02:14:02.922Z,1008.19
2018-07-28T02:14:56.498Z,1008.20
2018-07-28T02:14:57.075Z,1008.19
2018-07-28T02:14:57.676Z,1008.19
2018-07-28T02:14:58.276Z,1008.22
2018-07-28T02:14:58.876Z,1008.24
2018-07-28T02:14:59.476Z,1008.22
2018-07-28T02:15:00.085Z,1008.23
2018-07-28T02:15:00.674Z,1008.22
2018-07-28T02:15:55.174Z,1008.19
2018-07-28T02:15:55.749Z,1008.17
2018-07-28T02:15:56.351Z,1008.17
2018-07-28T02:15:56.948Z,1008.20
2018-07-28T02:15:57.547Z,1008.20
2018-07-28T02:15:58.149Z,1008.18
2018-07-28T02:15:58.748Z,1008.16
2018-07-28T02:15:59.348Z,1008.15
2018-07-28T02:16:53.854Z,1008.12
2018-07-28T02:16:54.426Z,1008.16
2018-07-28T02:16:55.026Z,1008.13
2018-07-28T02:16:55.625Z,1008.15
2018-07-28T02:16:56.225Z,1008.17
2018-07-28T02:16:56.828Z,1008.17
2018-07-28T02:16:57.426Z,1008.17
2018-07-28T02:16:58.026Z,1008.18
2018-07-28T02:17:52.528Z,1008.12
2018-07-28T02:17:53.100Z,1008.11
2018-07-28T02:17:53.700Z,1008.10
2018-07-28T02:17:54.299Z,1008.11
2018-07-28T02:17:54.900Z,1008.12
2018-07-28T02:17:55.501Z,1008.10
2018-07-28T02:17:56.099Z,1008.12
2018-07-28T02:17:56.700Z,1008.11
2018-07-28T02:18:50.179Z,1008.07
2018-07-28T02:18:50.754Z,1008.09
2018-07-28T02:18:51.353Z,1008.10
2018-07-28T02:18:51.955Z,1008.08
2018-07-28T02:18:52.553Z,1008.06
2018-07-28T02:18:53.153Z,1008.10
2018-07-28T02:18:53.753Z,1008.14
2018-07-28T02:18:54.353Z,1008.11
2018-07-28T02:19:48.854Z,1008.06
2018-07-28T02:19:49.429Z,1008.00
2018-07-28T02:19:50.029Z,1008.05
2018-07-28T02:19:50.628Z,1008.07
2018-07-28T02:19:51.230Z,1008.06
2018-07-28T02:19:51.834Z,1008.02
2018-07-28T02:19:52.428Z,1008.06
2018-07-28T02:19:53.028Z,1008.05
2018-07-28T02:20:47.528Z,1008.02
2018-07-28T02:20:48.103Z,1008.03
2018-07-28T02:20:48.703Z,1008.04
2018-07-28T02:20:49.303Z,1008.04
2018-07-28T02:20:49.905Z,1008.03
2018-07-28T02:20:50.503Z,1008.03
2018-07-28T02:20:51.102Z,1007.98
2018-07-28T02:20:51.703Z,1007.97
2018-07-28T02:21:45.182Z,1007.99
2018-07-28T02:21:45.756Z,1008.01
2018-07-28T02:21:46.357Z,1007.99
2018-07-28T02:21:46.957Z,1008.02
2018-07-28T02:21:47.556Z,1008.00
2018-07-28T02:21:48.157Z,1008.00
2018-07-28T02:21:48.756Z,1007.99
2018-07-28T02:21:49.357Z,1007.99
2018-07-28T02:22:43.858Z,1007.97
2018-07-28T02:22:44.433Z,1007.98
2018-07-28T02:22:45.033Z,1007.94
2018-07-28T02:22:45.631Z,1007.98
2018-07-28T02:22:46.232Z,1007.97
2018-07-28T02:22:46.832Z,1007.94
2018-07-28T02:22:47.432Z,1007.97
2018-07-28T02:22:48.031Z,1007.99
2018-07-28T02:23:42.532Z,1007.93
2018-07-28T02:23:43.107Z,1007.94
2018-07-28T02:23:43.707Z,1007.90
2018-07-28T02:23:44.306Z,1007.92
2018-07-28T02:23:44.907Z,1007.95
2018-07-28T02:23:45.506Z,1007.93
2018-07-28T02:23:46.106Z,1007.94
2018-07-28T02:23:46.707Z,1007.92
2018-07-28T02:24:41.207Z,1007.92
2018-07-28T02:24:41.782Z,1007.91
2018-07-28T02:24:42.382Z,1007.91
2018-07-28T02:24:42.981Z,1007.87
2018-07-28T02:24:43.581Z,1007.90
2018-07-28T02:24:44.183Z,1007.90
2018-07-28T02:24:44.782Z,1007.91
2018-07-28T02:24:45.381Z,1007.92
2018-07-28T02:25:39.887Z,1007.88
2018-07-28T02:25:40.458Z,1007.87
2018-07-28T02:25:41.057Z,1007.91
2018-07-28T02:25:41.661Z,1007.83
2018-07-28T02:25:42.259Z,1007.88
2018-07-28T02:25:42.857Z,1007.90
2018-07-28T02:25:43.458Z,1007.89
2018-07-28T02:25:44.058Z,1007.91
2018-07-28T02:26:37.639Z,1007.90
2018-07-28T02:26:38.214Z,1007.89
2018-07-28T02:26:38.814Z,1007.87
2018-07-28T02:26:39.415Z,1007.90
2018-07-28T02:26:40.015Z,1007.89
2018-07-28T02:26:40.614Z,1007.89
2018-07-28T02:26:41.215Z,1007.88
2018-07-28T02:26:41.815Z,1007.89
2018-07-28T02:27:36.314Z,1007.88
2018-07-28T02:27:36.889Z,1007.86
2018-07-28T02:27:37.488Z,1007.88
2018-07-28T02:27:38.087Z,1007.90
2018-07-28T02:27:38.687Z,1007.89
2018-07-28T02:27:39.288Z,1007.85
2018-07-28T02:27:39.899Z,1007.90
2018-07-28T02:27:40.487Z,1007.88
2018-07-28T02:28:34.993Z,1007.88
2018-07-28T02:28:35.564Z,1007.90
2018-07-28T02:28:36.164Z,1007.85
2018-07-28T02:28:36.765Z,1007.86
2018-07-28T02:28:37.364Z,1007.89
2018-07-28T02:28:37.966Z,1007.88
2018-07-28T02:28:38.565Z,1007.88
2018-07-28T02:28:39.164Z,1007.86
2018-07-28T02:29:33.665Z,1007.87
2018-07-28T02:29:34.240Z,1007.86
2018-07-28T02:29:34.840Z,1007.86
2018-07-28T02:29:35.439Z,1007.87
2018-07-28T02:29:36.040Z,1007.83
2018-07-28T02:29:36.639Z,1007.86
2018-07-28T02:29:37.239Z,1007.84
2018-07-28T02:29:37.840Z,1007.87
2018-07-28T02:30:31.319Z,1007.82
2018-07-28T02:30:31.892Z,1007.82
2018-07-28T02:30:32.493Z,1007.83
2018-07-28T02:30:33.101Z,1007.85
2018-07-28T02:30:33.693Z,1007.84
2018-07-28T02:30:34.296Z,1007.84
2018-07-28T02:30:34.893Z,1007.82
2018-07-28T02:30:35.494Z,1007.85
2018-07-28T02:31:29.073Z,1007.81
2018-07-28T02:31:29.648Z,1007.79
2018-07-28T02:31:30.251Z,1007.81
2018-07-28T02:31:30.846Z,1007.82
2018-07-28T02:31:31.451Z,1007.79
2018-07-28T02:31:32.049Z,1007.83
2018-07-28T02:31:32.648Z,1007.80
2018-07-28T02:31:33.247Z,1007.80
2018-07-28T02:32:27.749Z,1007.78
2018-07-28T02:32:28.321Z,1007.81
2018-07-28T02:32:28.920Z,1007.76
2018-07-28T02:32:29.524Z,1007.75
2018-07-28T02:32:30.120Z,1007.77
2018-07-28T02:32:30.720Z,1007.79
2018-07-28T02:32:31.318Z,1007.77
2018-07-28T02:32:31.920Z,1007.80
2018-07-28T02:33:25.400Z,1007.79
2018-07-28T02:33:25.975Z,1007.79
2018-07-28T02:33:26.573Z,1007.81
2018-07-28T02:33:27.179Z,1007.78
2018-07-28T02:33:27.775Z,1007.77
2018-07-28T02:33:28.374Z,1007.77
2018-07-28T02:33:28.974Z,1007.77
2018-07-28T02:33:29.585Z,1007.78
2018-07-28T02:34:24.074Z,1007.78
2018-07-28T02:34:24.650Z,1007.76
2018-07-28T02:34:25.252Z,1007.77
2018-07-28T02:34:25.850Z,1007.74
2018-07-28T02:34:26.452Z,1007.77
2018-07-28T02:34:27.051Z,1007.76
2018-07-28T02:34:27.649Z,1007.80
2018-07-28T02:34:28.249Z,1007.79
2018-07-28T02:35:22.750Z,1007.78
2018-07-28T02:35:23.325Z,1007.80
2018-07-28T02:35:23.924Z,1007.79
2018-07-28T02:35:24.526Z,1007.77
2018-07-28T02:35:25.127Z,1007.78
2018-07-28T02:35:25.725Z,1007.80
2018-07-28T02:35:26.324Z,1007.79
2018-07-28T02:35:26.924Z,1007.78
2018-07-28T02:36:21.433Z,1007.76
2018-07-28T02:36:22.002Z,1007.76
2018-07-28T02:36:22.600Z,1007.79
2018-07-28T02:36:23.202Z,1007.78
2018-07-28T02:36:23.800Z,1007.77
2018-07-28T02:36:24.400Z,1007.77
2018-07-28T02:36:25.000Z,1007.78
2018-07-28T02:36:25.601Z,1007.80
2018-07-28T02:37:19.078Z,1007.80
2018-07-28T02:37:19.653Z,1007.79
2018-07-28T02:37:20.253Z,1007.80
2018-07-28T02:37:20.853Z,1007.80
2018-07-28T02:37:21.453Z,1007.77
2018-07-28T02:37:22.053Z,1007.76
2018-07-28T02:37:22.652Z,1007.78
2018-07-28T02:37:23.254Z,1007.77
2018-07-28T02:38:17.763Z,1007.78
2018-07-28T02:38:18.328Z,1007.80
2018-07-28T02:38:18.929Z,1007.81
2018-07-28T02:38:19.529Z,1007.81
2018-07-28T02:38:20.129Z,1007.81
2018-07-28T02:38:20.730Z,1007.77
2018-07-28T02:38:21.331Z,1007.78
2018-07-28T02:38:21.929Z,1007.82
2018-07-28T02:39:16.434Z,1007.80
2018-07-28T02:39:17.004Z,1007.77
2018-07-28T02:39:17.604Z,1007.80
2018-07-28T02:39:18.205Z,1007.76
2018-07-28T02:39:18.803Z,1007.82
2018-07-28T02:39:19.406Z,1007.76
2018-07-28T02:39:20.006Z,1007.79
2018-07-28T02:39:20.602Z,1007.78
2018-07-28T02:40:15.109Z,1007.77
2018-07-28T02:40:15.679Z,1007.77
2018-07-28T02:40:16.279Z,1007.79
2018-07-28T02:40:16.881Z,1007.78
2018-07-28T02:40:17.483Z,1007.78
2018-07-28T02:40:18.080Z,1007.79
2018-07-28T02:40:18.681Z,1007.77
2018-07-28T02:40:19.280Z,1007.75
2018-07-28T02:41:13.780Z,1007.81
2018-07-28T02:41:14.356Z,1007.77
2018-07-28T02:41:14.955Z,1007.76
2018-07-28T02:41:15.555Z,1007.79
2018-07-28T02:41:16.155Z,1007.81
2018-07-28T02:41:16.756Z,1007.79
2018-07-28T02:41:17.357Z,1007.82
2018-07-28T02:41:17.954Z,1007.80
2018-07-28T02:42:11.431Z,1007.75
2018-07-28T02:42:12.008Z,1007.77
2018-07-28T02:42:12.609Z,1007.78
2018-07-28T02:42:13.210Z,1007.76
2018-07-28T02:42:13.810Z,1007.76
2018-07-28T02:42:14.407Z,1007.76
2018-07-28T02:42:15.008Z,1007.75
2018-07-28T02:42:15.608Z,1007.75
2018-07-28T02:43:10.114Z,1007.76
2018-07-28T02:43:10.685Z,1007.78
2018-07-28T02:43:11.289Z,1007.75
2018-07-28T02:43:11.883Z,1007.77
2018-07-28T02:43:12.483Z,1007.77
2018-07-28T02:43:13.083Z,1007.76
2018-07-28T02:43:13.683Z,1007.78
2018-07-28T02:43:14.283Z,1007.76
2018-07-28T02:44:08.783Z,1007.73
2018-07-28T02:44:09.358Z,1007.76
2018-07-28T02:44:09.966Z,1007.77
2018-07-28T02:44:10.558Z,1007.77
2018-07-28T02:44:11.161Z,1007.78
2018-07-28T02:44:11.763Z,1007.78
2018-07-28T02:44:12.360Z,1007.77
2018-07-28T02:44:12.959Z,1007.76
2018-07-28T02:45:07.461Z,1007.72
2018-07-28T02:45:08.034Z,1007.74
2018-07-28T02:45:08.634Z,1007.73
2018-07-28T02:45:09.234Z,1007.75
2018-07-28T02:45:09.832Z,1007.70
2018-07-28T02:45:10.437Z,1007.75
2018-07-28T02:45:11.034Z,1007.77
2018-07-28T02:45:11.633Z,1007.75
2018-07-28T02:46:06.176Z,1007.72
2018-07-28T02:46:06.711Z,1007.71
2018-07-28T02:46:07.310Z,1007.74
2018-07-28T02:46:07.912Z,1007.72
2018-07-28T02:46:08.508Z,1007.69
2018-07-28T02:46:09.108Z,1007.73
2018-07-28T02:46:09.709Z,1007.69
2018-07-28T02:46:10.313Z,1007.68
2018-07-28T02:47:04.816Z,1007.70
2018-07-28T02:47:05.386Z,1007.69
2018-07-28T02:47:05.987Z,1007.72
2018-07-28T02:47:06.589Z,1007.69
2018-07-28T02:47:07.184Z,1007.69
2018-07-28T02:47:07.785Z,1007.68
2018-07-28T02:47:08.385Z,1007.69
2018-07-28T02:47:08.984Z,1007.70
2018-07-28T02:48:03.491Z,1007.65
2018-07-28T02:48:04.072Z,1007.66
2018-07-28T02:48:04.660Z,1007.65
2018-07-28T02:48:05.260Z,1007.63
2018-07-28T02:48:05.862Z,1007.68
2018-07-28T02:48:06.462Z,1007.68
2018-07-28T02:48:07.060Z,1007.67
2018-07-28T02:48:07.659Z,1007.65
2018-07-28T02:49:02.167Z,1007.61
2018-07-28T02:49:02.737Z,1007.61
2018-07-28T02:49:03.337Z,1007.60
2018-07-28T02:49:03.943Z,1007.60
2018-07-28T02:49:04.536Z,1007.63
2018-07-28T02:49:05.138Z,1007.63
2018-07-28T02:49:05.736Z,1007.63
2018-07-28T02:49:06.336Z,1007.65
2018-07-28T02:49:59.916Z,1007.60
2018-07-28T02:50:00.494Z,1007.58
2018-07-28T02:50:01.129Z,1007.60
2018-07-28T02:50:01.694Z,1007.61
2018-07-28T02:50:02.294Z,1007.61
2018-07-28T02:50:02.892Z,1007.60
2018-07-28T02:50:03.493Z,1007.61
2018-07-28T02:50:04.094Z,1007.60
2018-07-28T02:50:58.591Z,1007.60
2018-07-28T02:50:59.167Z,1007.57
2018-07-28T02:50:59.767Z,1007.58
2018-07-28T02:51:00.367Z,1007.60
2018-07-28T02:51:00.970Z,1007.60
2018-07-28T02:51:01.565Z,1007.59
2018-07-28T02:51:02.169Z,1007.58
2018-07-28T02:51:02.766Z,1007.57
2018-07-28T02:51:57.273Z,1007.56
2018-07-28T02:51:57.842Z,1007.59
2018-07-28T02:51:58.443Z,1007.57
2018-07-28T02:51:59.043Z,1007.57
2018-07-28T02:51:59.642Z,1007.56
2018-07-28T02:52:00.243Z,1007.56
2018-07-28T02:52:00.842Z,1007.54
2018-07-28T02:52:01.442Z,1007.54
2018-07-28T02:52:55.948Z,1007.55
2018-07-28T02:52:56.516Z,1007.54
2018-07-28T02:52:57.115Z,1007.55
2018-07-28T02:52:57.716Z,1007.54
2018-07-28T02:52:58.315Z,1007.56
2018-07-28T02:52:58.916Z,1007.56
2018-07-28T02:52:59.519Z,1007.53
2018-07-28T02:53:00.117Z,1007.54
2018-07-28T02:53:53.597Z,1007.54
2018-07-28T02:53:54.170Z,1007.53
2018-07-28T02:53:54.771Z,1007.54
2018-07-28T02:53:55.375Z,1007.51
2018-07-28T02:53:55.970Z,1007.52
2018-07-28T02:53:56.570Z,1007.52
2018-07-28T02:53:57.172Z,1007.52
2018-07-28T02:53:57.771Z,1007.54
2018-07-28T02:54:51.351Z,1007.58
2018-07-28T02:54:51.926Z,1007.57
2018-07-28T02:54:52.527Z,1007.55
2018-07-28T02:54:53.125Z,1007.56
2018-07-28T02:54:53.726Z,1007.56
2018-07-28T02:54:54.326Z,1007.55
2018-07-28T02:54:54.924Z,1007.56
2018-07-28T02:54:55.528Z,1007.59
2018-07-28T02:55:50.026Z,1007.55
2018-07-28T02:55:50.636Z,1007.55
2018-07-28T02:55:51.204Z,1007.54
2018-07-28T02:55:51.801Z,1007.54
2018-07-28T02:55:52.400Z,1007.54
2018-07-28T02:55:53.000Z,1007.54
2018-07-28T02:55:53.601Z,1007.52
2018-07-28T02:55:54.217Z,1007.54
2018-07-28T02:56:47.782Z,1007.58
2018-07-28T02:56:48.355Z,1007.58
2018-07-28T02:56:48.956Z,1007.58
2018-07-28T02:56:49.556Z,1007.61
2018-07-28T02:56:50.155Z,1007.57
2018-07-28T02:56:50.756Z,1007.55
2018-07-28T02:56:51.356Z,1007.54
2018-07-28T02:56:51.956Z,1007.55
2018-07-28T02:57:46.456Z,1007.55
2018-07-28T02:57:47.029Z,1007.56
2018-07-28T02:57:47.627Z,1007.55
2018-07-28T02:57:48.228Z,1007.54
2018-07-28T02:57:48.829Z,1007.56
2018-07-28T02:57:49.430Z,1007.54
2018-07-28T02:57:50.030Z,1007.56
2018-07-28T02:57:50.629Z,1007.53
2018-07-28T02:58:44.108Z,1007.55
2018-07-28T02:58:44.684Z,1007.52
2018-07-28T02:58:45.290Z,1007.52
2018-07-28T02:58:45.884Z,1007.52
2018-07-28T02:58:46.482Z,1007.53
2018-07-28T02:58:47.082Z,1007.55
2018-07-28T02:58:47.684Z,1007.53
2018-07-28T02:58:48.283Z,1007.51
2018-07-28T02:59:41.863Z,1007.49
2018-07-28T02:59:42.438Z,1007.51
2018-07-28T02:59:43.039Z,1007.52
2018-07-28T02:59:43.638Z,1007.49
2018-07-28T02:59:44.239Z,1007.51
2018-07-28T02:59:44.838Z,1007.52